LOT151 EPWA-LTAI
Flight info
| Callsign | LOT151 |
|---|---|
| Flight time | N/A |
| Altitude | 37000 |
| Route | EVINA7G EVINA DCT KOTEK DCT KENIN/N0453F390 DCT UPAMA DCT ADORU UL606 CRD UL854 KOZLU KOZLU1P |
| Aircraft | B38M/M-SDE2E3FGHIRWXY/LB1 |
Departure
| Time | 2026-05-07 18:30 |
|---|---|
| Airport | Warsaw Chopin Airport (EPWA) |
Arrival
| Time | N/A |
|---|---|
| Airport | Antalya International Airport (LTAI) |
| Time | Latitude | Longitude | Altitude | Speed | Heading |
|---|---|---|---|---|---|
| 2026-05-07 18:11 | 52.17002 | 20.96863 | 364 ft | 0 kts | 242° |
| 2026-05-07 18:23 | 52.17002 | 20.96861 | 364 ft | 0 kts | 242° |
| 2026-05-07 18:24 | 52.17001 | 20.96860 | 364 ft | 1 kts | 242° |
| 2026-05-07 18:24 | 52.16983 | 20.96805 | 368 ft | 8 kts | 237° |
| 2026-05-07 18:24 | 52.16932 | 20.96799 | 366 ft | 8 kts | 155° |
| 2026-05-07 18:24 | 52.16883 | 20.96842 | 368 ft | 9 kts | 152° |
| 2026-05-07 18:25 | 52.16806 | 20.96909 | 365 ft | 16 kts | 152° |
| 2026-05-07 18:25 | 52.16718 | 20.96988 | 365 ft | 10 kts | 152° |
| 2026-05-07 18:25 | 52.16663 | 20.97065 | 365 ft | 11 kts | 112° |
| 2026-05-07 18:25 | 52.16630 | 20.97181 | 366 ft | 12 kts | 116° |
| 2026-05-07 18:26 | 52.16594 | 20.97307 | 363 ft | 13 kts | 115° |
| 2026-05-07 18:26 | 52.16554 | 20.97444 | 363 ft | 14 kts | 115° |
| 2026-05-07 18:26 | 52.16512 | 20.97593 | 362 ft | 15 kts | 114° |
| 2026-05-07 18:26 | 52.16468 | 20.97754 | 361 ft | 16 kts | 114° |
| 2026-05-07 18:27 | 52.16380 | 20.97784 | 363 ft | 16 kts | 207° |
| 2026-05-07 18:27 | 52.16310 | 20.97663 | 361 ft | 16 kts | 280° |
| 2026-05-07 18:27 | 52.16318 | 20.97629 | 362 ft | 0 kts | 290° |
| 2026-05-07 18:29 | 52.16319 | 20.97624 | 361 ft | 3 kts | 290° |
| 2026-05-07 18:29 | 52.16412 | 20.97286 | 361 ft | 69 kts | 294° |
| 2026-05-07 18:29 | 52.16707 | 20.96232 | 370 ft | 133 kts | 294° |
| 2026-05-07 18:29 | 52.17162 | 20.94579 | 423 ft | 180 kts | 295° |
| 2026-05-07 18:30 | 52.17695 | 20.92660 | 1024 ft | 189 kts | 295° |
| 2026-05-07 18:30 | 52.18177 | 20.90765 | 2115 ft | 179 kts | 290° |
| 2026-05-07 18:30 | 52.18425 | 20.88644 | 2512 ft | 204 kts | 271° |
| 2026-05-07 18:30 | 52.18147 | 20.86261 | 2943 ft | 224 kts | 255° |
| 2026-05-07 18:31 | 52.17711 | 20.83707 | 3464 ft | 240 kts | 256° |
| 2026-05-07 18:31 | 52.17291 | 20.81133 | 4329 ft | 243 kts | 256° |
| 2026-05-07 18:31 | 52.16850 | 20.78377 | 4883 ft | 260 kts | 256° |
| 2026-05-07 18:31 | 52.16392 | 20.75477 | 5752 ft | 260 kts | 256° |
| 2026-05-07 18:32 | 52.15917 | 20.72665 | 6598 ft | 263 kts | 248° |
| 2026-05-07 18:32 | 52.14908 | 20.70200 | 7409 ft | 265 kts | 227° |
| 2026-05-07 18:32 | 52.13433 | 20.68370 | 8135 ft | 271 kts | 207° |
| 2026-05-07 18:32 | 52.11624 | 20.67429 | 8918 ft | 276 kts | 195° |
| 2026-05-07 18:33 | 52.09742 | 20.66659 | 9672 ft | 280 kts | 197° |
| 2026-05-07 18:33 | 52.07848 | 20.65854 | 10329 ft | 286 kts | 197° |
| 2026-05-07 18:33 | 52.05861 | 20.64989 | 10624 ft | 305 kts | 197° |
| 2026-05-07 18:33 | 52.03753 | 20.64057 | 10859 ft | 325 kts | 197° |